Time;durP1;ratioP1;P1;durP2;ratioP2;P2;SDS_P1;SDS_P2;PMS_P1;PMS_P2;Temp;Humidity;BMP_temperature;BMP_pressure;BME280_temperature;BME280_humidity;BME280_pressure;Samples;Min_cycle;Max_cycle;Signal;HPM_P1;HPM_P2
2021/03/27 00:02:08;;;;;;;19.20;12.88;;;10.80;91.20;;;;;;5091257;28;20089;-51
2021/03/27 00:04:46;;;;;;;17.65;11.77;;;10.80;91.30;;;;;;5091024;28;20058;-49
2021/03/27 00:07:23;;;;;;;20.27;12.68;;;10.70;91.50;;;;;;5091141;28;20024;-51
2021/03/27 00:09:49;;;;;;;20.60;12.57;;;10.70;91.70;;;;;;5091051;28;20024;-48
2021/03/27 00:12:36;;;;;;;18.88;13.10;;;10.60;91.80;;;;;;5090780;28;20027;-50
2021/03/27 00:15:37;;;;;;;18.65;12.20;;;10.70;91.90;;;;;;5091252;28;20024;-50
2021/03/27 00:18:12;;;;;;;20.88;12.93;;;10.60;92.00;;;;;;5055511;28;20123;-51
2021/03/27 00:21:01;;;;;;;17.35;12.82;;;10.70;92.10;;;;;;5091500;28;20027;-50
2021/03/27 00:23:38;;;;;;;16.65;12.07;;;10.60;92.30;;;;;;5074472;28;20039;-50
2021/03/27 00:26:10;;;;;;;21.05;12.80;;;10.60;92.40;;;;;;5091885;28;20103;-48
2021/03/27 00:28:40;;;;;;;21.17;13.65;;;10.70;92.30;;;;;;5092345;28;20044;-51
2021/03/27 00:31:13;;;;;;;17.00;13.15;;;10.70;92.30;;;;;;5091152;28;20042;-51
2021/03/27 00:33:47;;;;;;;23.83;13.43;;;10.80;92.40;;;;;;5090594;28;20094;-50
2021/03/27 00:36:21;;;;;;;18.48;12.63;;;10.70;92.30;;;;;;5090745;28;20099;-49
2021/03/27 00:38:59;;;;;;;18.45;12.32;;;10.70;92.50;;;;;;5090487;28;20024;-49
2021/03/27 00:41:34;;;;;;;19.25;13.48;;;10.60;92.50;;;;;;5090577;28;20315;-49
2021/03/27 00:44:02;;;;;;;20.13;11.93;;;10.60;92.50;;;;;;5090869;28;20389;-48
2021/03/27 00:46:29;;;;;;;21.67;12.43;;;10.60;92.80;;;;;;5090646;28;20059;-53
2021/03/27 00:49:10;;;;;;;18.85;12.10;;;10.60;92.80;;;;;;5090217;28;20035;-51
2021/03/27 00:51:40;;;;;;;16.67;11.13;;;10.60;92.70;;;;;;5090334;28;20020;-48
2021/03/27 00:54:23;;;;;;;19.95;11.80;;;10.60;92.90;;;;;;5090255;28;20032;-53
2021/03/27 00:57:21;;;;;;;19.15;12.68;;;10.70;92.80;;;;;;5090607;28;20123;-54
2021/03/27 01:00:05;;;;;;;16.27;11.85;;;10.70;92.80;;;;;;5090168;28;20028;-51
2021/03/27 01:02:31;;;;;;;21.73;12.52;;;10.70;92.70;;;;;;5090517;28;20032;-50
2021/03/27 01:05:00;;;;;;;24.98;13.20;;;10.80;92.70;;;;;;5091778;28;20028;-50
2021/03/27 01:07:26;;;;;;;21.25;13.45;;;10.80;92.90;;;;;;5094522;28;20027;-51
2021/03/27 01:10:25;;;;;;;21.63;13.13;;;10.80;92.90;;;;;;5076622;28;20028;-52
2021/03/27 01:12:52;;;;;;;19.42;12.82;;;10.80;93.00;;;;;;5045111;28;20431;-52
2021/03/27 01:15:23;;;;;;;20.27;12.35;;;10.80;93.20;;;;;;5091893;28;20032;-51
2021/03/27 01:17:52;;;;;;;20.98;13.02;;;10.80;93.40;;;;;;5093982;28;20070;-47
2021/03/27 01:20:20;;;;;;;16.90;12.20;;;10.80;93.60;;;;;;5094056;28;20570;-53
2021/03/27 01:22:47;;;;;;;20.05;12.65;;;10.80;93.70;;;;;;5093956;28;20506;-53
2021/03/27 01:25:20;;;;;;;21.35;12.32;;;10.80;93.80;;;;;;5094690;28;20023;-52
2021/03/27 01:28:06;;;;;;;19.77;13.07;;;10.80;93.70;;;;;;5094054;28;20024;-54
2021/03/27 01:30:37;;;;;;;23.92;11.90;;;10.80;93.80;;;;;;5094101;28;20024;-52
2021/03/27 01:33:29;;;;;;;19.20;11.70;;;10.80;93.90;;;;;;5093808;28;20020;-52
2021/03/27 01:36:13;;;;;;;17.38;10.98;;;10.80;93.90;;;;;;5094633;28;20028;-50
2021/03/27 01:38:51;;;;;;;14.43;10.05;;;10.90;93.80;;;;;;5094066;28;20020;-51
2021/03/27 01:41:26;;;;;;;14.98;11.32;;;10.80;93.90;;;;;;5094046;28;20032;-50
2021/03/27 01:44:14;;;;;;;13.20;10.02;;;10.90;93.90;;;;;;5093724;28;20031;-52
2021/03/27 01:47:11;;;;;;;14.93;9.65;;;11.00;93.70;;;;;;5075610;28;20062;-53
2021/03/27 01:49:46;;;;;;;12.07;8.95;;;11.10;93.50;;;;;;5075534;28;20028;-51
2021/03/27 01:52:14;;;;;;;15.20;9.48;;;11.10;93.40;;;;;;5093832;28;20146;-49
2021/03/27 01:54:55;;;;;;;15.18;9.07;;;11.20;93.30;;;;;;5075139;28;20024;-53
2021/03/27 01:57:41;;;;;;;9.93;8.57;;;11.20;93.20;;;;;;5093660;28;20035;-51
2021/03/27 02:00:13;;;;;;;9.35;7.50;;;11.20;93.10;;;;;;5093669;28;20500;-53
2021/03/27 02:02:59;;;;;;;12.60;7.63;;;11.30;93.10;;;;;;5075130;28;20026;-55
2021/03/27 02:05:42;;;;;;;10.02;7.32;;;11.40;92.90;;;;;;5075515;28;20016;-51
2021/03/27 02:08:18;;;;;;;13.73;8.63;;;11.40;92.90;;;;;;5093466;28;20028;-54
2021/03/27 02:11:09;;;;;;;7.93;7.13;;;11.40;92.80;;;;;;5093613;28;20020;-50
2021/03/27 02:14:01;;;;;;;17.17;8.40;;;11.50;92.80;;;;;;5075010;28;20389;-50
2021/03/27 02:16:33;;;;;;;13.23;8.52;;;11.50;92.70;;;;;;5092914;28;20048;-55
2021/03/27 02:19:23;;;;;;;12.10;8.23;;;11.50;92.80;;;;;;5080289;28;20066;-53
2021/03/27 02:21:51;;;;;;;10.15;6.68;;;11.50;92.80;;;;;;5093162;28;20028;-53
2021/03/27 02:24:35;;;;;;;10.93;6.88;;;11.50;92.90;;;;;;5093459;28;20655;-57
2021/03/27 02:27:42;;;;;;;13.02;7.97;;;11.50;92.80;;;;;;5092962;28;20555;-56
2021/03/27 02:30:31;;;;;;;8.00;6.00;;;11.60;92.90;;;;;;5093332;28;20048;-53
2021/03/27 02:33:28;;;;;;;7.93;6.30;;;11.60;93.00;;;;;;5096175;28;20044;-53
2021/03/27 02:36:29;;;;;;;7.95;5.57;;;11.70;92.80;;;;;;5092850;28;20020;-56
2021/03/27 02:39:05;;;;;;;10.25;5.60;;;11.70;92.70;;;;;;5092736;28;20020;-55
2021/03/27 02:41:37;;;;;;;;;;;11.70;92.70;;;;;;5102174;28;20035;-56
2021/03/27 02:44:20;;;;;;;8.52;6.05;;;11.80;92.70;;;;;;5106834;28;19942;-52
2021/03/27 02:46:48;;;;;;;6.38;5.20;;;11.80;92.70;;;;;;5104696;28;20054;-58
2021/03/27 02:49:47;;;;;;;12.10;6.00;;;11.90;92.60;;;;;;5101964;28;20047;-53
2021/03/27 02:52:45;;;;;;;13.15;5.03;;;11.90;92.40;;;;;;5062935;28;20032;-55
2021/03/27 02:55:27;;;;;;;10.95;4.90;;;12.00;92.30;;;;;;5103668;28;20047;-55
2021/03/27 02:58:04;;;;;;;7.15;4.47;;;12.00;92.20;;;;;;5092168;28;20032;-57
2021/03/27 03:01:01;;;;;;;9.55;3.90;;;12.00;92.10;;;;;;5098276;28;20084;-57
2021/03/27 03:03:42;;;;;;;;;;;12.00;92.10;;;;;;5099807;28;20031;-51
2021/03/27 03:06:22;;;;;;;8.80;3.58;;;11.90;92.30;;;;;;5097706;28;20036;-57
2021/03/27 03:09:13;;;;;;;6.88;2.22;;;11.90;92.50;;;;;;5092771;28;20108;-53
2021/03/27 03:11:47;;;;;;;2.53;2.10;;;11.70;92.00;;;;;;5100114;28;20032;-49
2021/03/27 03:14:25;;;;;;;2.53;2.17;;;11.50;92.10;;;;;;5112211;28;20023;-49
2021/03/27 03:17:15;;;;;;;4.45;2.65;;;11.40;92.80;;;;;;5098391;28;20012;-52
2021/03/27 03:19:55;;;;;;;3.00;2.70;;;11.30;93.00;;;;;;5091929;28;20096;-50
2021/03/27 03:22:43;;;;;;;4.55;2.72;;;11.20;93.20;;;;;;5092146;28;20020;-55
2021/03/27 03:25:16;;;;;;;6.20;2.33;;;11.10;93.30;;;;;;5091815;28;20103;-52
2021/03/27 03:27:53;;;;;;;3.80;1.80;;;11.00;93.10;;;;;;5093504;28;20377;-51
2021/03/27 03:30:23;;;;;;;1.85;1.65;;;10.90;92.90;;;;;;5111969;28;20436;-53
2021/03/27 03:33:09;;;;;;;1.90;1.02;;;10.80;92.60;;;;;;5111747;28;20541;-53
2021/03/27 03:35:49;;;;;;;0.50;0.50;;;10.70;91.80;;;;;;5093915;28;20087;-51
2021/03/27 03:38:43;;;;;;;0.80;0.80;;;10.40;91.30;;;;;;5093564;28;20114;-51
2021/03/27 03:41:46;;;;;;;2.17;0.50;;;10.30;91.90;;;;;;5112106;28;20349;-49
2021/03/27 03:44:16;;;;;;;0.60;0.60;;;10.10;92.40;;;;;;5111421;28;20493;-52
2021/03/27 03:46:55;;;;;;;0.40;0.40;;;9.90;92.80;;;;;;5111779;28;20039;-56
2021/03/27 03:49:42;;;;;;;0.68;0.68;;;9.70;93.00;;;;;;5111756;28;20043;-58
2021/03/27 03:52:20;;;;;;;0.50;0.50;;;9.70;93.20;;;;;;5111904;28;20564;-51
2021/03/27 03:54:59;;;;;;;1.38;0.70;;;9.50;93.10;;;;;;5111532;28;20070;-50
2021/03/27 03:57:30;;;;;;;0.50;0.50;;;9.50;93.30;;;;;;5111528;28;20020;-53
2021/03/27 03:59:59;;;;;;;0.50;0.43;;;9.40;92.90;;;;;;5111629;28;20370;-52
2021/03/27 04:02:55;;;;;;;0.40;0.40;;;9.30;93.10;;;;;;5093438;28;20024;-52
2021/03/27 04:05:33;;;;;;;2.88;0.77;;;9.20;92.80;;;;;;5099235;28;20028;-49
2021/03/27 04:08:14;;;;;;;0.70;0.70;;;9.20;92.90;;;;;;5090906;28;20039;-53
2021/03/27 04:10:42;;;;;;;1.08;0.38;;;9.20;92.70;;;;;;5091184;28;20016;-53
2021/03/27 04:13:17;;;;;;;0.50;0.50;;;9.10;92.60;;;;;;5090741;28;20051;-52
2021/03/27 04:16:01;;;;;;;0.33;0.33;;;9.10;92.30;;;;;;5091192;28;20418;-55
2021/03/27 04:18:51;;;;;;;0.47;0.40;;;9.10;92.20;;;;;;5090821;28;20265;-53
2021/03/27 04:21:16;;;;;;;0.40;0.40;;;9.00;92.10;;;;;;5090980;28;20032;-53
2021/03/27 04:24:01;;;;;;;0.40;0.40;;;9.00;91.80;;;;;;5090690;28;20024;-53
2021/03/27 04:26:31;;;;;;;0.30;0.30;;;9.00;91.60;;;;;;5072649;28;20393;-52
2021/03/27 04:29:16;;;;;;;0.40;0.40;;;8.80;91.00;;;;;;5090717;28;20035;-51
2021/03/27 04:31:52;;;;;;;0.52;0.45;;;8.70;91.00;;;;;;5090682;28;20024;-50
2021/03/27 04:34:35;;;;;;;0.93;0.40;;;8.60;91.10;;;;;;5090713;28;20016;-54
2021/03/27 04:37:14;;;;;;;0.40;0.40;;;8.50;91.30;;;;;;5072818;28;20389;-51
2021/03/27 04:40:01;;;;;;;0.30;0.30;;;8.40;91.60;;;;;;5090489;28;20051;-54
2021/03/27 04:42:29;;;;;;;0.50;0.50;;;8.40;91.70;;;;;;5090799;28;20027;-49
2021/03/27 04:45:27;;;;;;;3.65;0.50;;;8.30;91.90;;;;;;5090941;28;20024;-53
2021/03/27 04:48:11;;;;;;;1.05;0.50;;;8.30;92.00;;;;;;5090621;28;20099;-55
2021/03/27 04:50:53;;;;;;;1.02;0.60;;;8.10;92.10;;;;;;5090547;28;20016;-52
2021/03/27 04:53:27;;;;;;;1.67;0.70;;;8.10;92.20;;;;;;5090561;28;20020;-54
2021/03/27 04:56:09;;;;;;;0.68;0.65;;;8.00;92.30;;;;;;5072757;28;20103;-51
2021/03/27 04:58:58;;;;;;;0.63;0.50;;;8.00;92.50;;;;;;5090736;28;20453;-52
2021/03/27 05:02:02;;;;;;;0.40;0.40;;;7.90;92.60;;;;;;5092038;28;20032;-55
2021/03/27 05:04:40;;;;;;;1.20;0.60;;;7.80;92.80;;;;;;5059253;28;20500;-51
2021/03/27 05:07:33;;;;;;;0.40;0.40;;;7.70;92.90;;;;;;5094979;28;20024;-50
2021/03/27 05:10:09;;;;;;;2.42;0.90;;;7.80;93.10;;;;;;5096495;28;20065;-56
2021/03/27 05:12:56;;;;;;;1.00;0.60;;;7.80;93.10;;;;;;5110711;28;20015;-54
2021/03/27 05:16:00;;;;;;;4.75;0.70;;;7.80;93.10;;;;;;5110746;28;20027;-57
2021/03/27 05:18:38;;;;;;;0.68;0.68;;;7.70;93.50;;;;;;5110540;28;20397;-52
2021/03/27 05:21:17;;;;;;;3.00;0.63;;;7.70;93.30;;;;;;5110711;28;20031;-53
2021/03/27 05:24:03;;;;;;;0.75;0.75;;;7.60;93.40;;;;;;5091192;28;20028;-56
2021/03/27 05:26:46;;;;;;;1.95;0.85;;;7.60;93.50;;;;;;5058529;28;20413;-52
2021/03/27 05:29:36;;;;;;;0.43;0.40;;;7.70;93.50;;;;;;5090194;28;20065;-51
2021/03/27 05:32:25;;;;;;;1.35;0.80;;;7.60;93.40;;;;;;5090244;28;20017;-57
2021/03/27 05:34:53;;;;;;;2.47;0.63;;;7.60;93.40;;;;;;5061098;28;20477;-53
2021/03/27 05:37:50;;;;;;;2.42;0.70;;;7.60;93.20;;;;;;5090254;28;20104;-52
2021/03/27 05:40:25;;;;;;;0.50;0.50;;;7.60;93.00;;;;;;5088105;28;20032;-57
2021/03/27 05:43:09;;;;;;;2.72;0.60;;;7.70;92.90;;;;;;5092391;28;20028;-52
2021/03/27 05:46:07;;;;;;;0.70;0.70;;;8.00;92.50;;;;;;5090112;28;20024;-52
2021/03/27 05:49:03;;;;;;;0.40;0.40;;;8.20;92.20;;;;;;5089972;28;20501;-55
2021/03/27 05:51:50;;;;;;;3.95;0.68;;;8.50;91.70;;;;;;5092078;28;20048;-53
2021/03/27 05:54:35;;;;;;;0.70;0.68;;;8.60;91.20;;;;;;5093326;28;20542;-53
2021/03/27 05:57:49;;;;;;;0.50;0.50;;;8.70;91.20;;;;;;5097673;28;20080;-52
2021/03/27 06:00:17;;;;;;;0.98;0.40;;;8.80;90.60;;;;;;5055890;28;20400;-56
2021/03/27 06:03:04;;;;;;;0.60;0.60;;;9.00;90.00;;;;;;5097093;28;20072;-55
2021/03/27 06:05:58;;;;;;;1.58;0.60;;;8.80;88.90;;;;;;5102410;28;20463;-53
2021/03/27 06:08:36;;;;;;;5.30;1.00;;;8.70;89.30;;;;;;5113434;28;20034;-58
2021/03/27 06:11:18;;;;;;;1.33;0.77;;;8.60;89.70;;;;;;5112785;28;20042;-58
2021/03/27 06:13:46;;;;;;;2.90;0.90;;;8.40;90.00;;;;;;5111588;28;20035;-58
2021/03/27 06:16:12;;;;;;;1.27;0.77;;;8.30;90.10;;;;;;5113519;28;20034;-58
2021/03/27 06:19:15;;;;;;;0.60;0.60;;;8.20;90.50;;;;;;5097107;28;20482;-57
2021/03/27 06:22:04;;;;;;;1.88;0.75;;;8.00;90.80;;;;;;5094051;28;20051;-58
2021/03/27 06:24:57;;;;;;;1.27;0.80;;;8.00;91.10;;;;;;5092746;28;20024;-58
2021/03/27 06:27:47;;;;;;;2.15;0.80;;;7.90;91.30;;;;;;5075596;28;20119;-58
2021/03/27 06:30:29;;;;;;;3.42;0.77;;;8.00;91.60;;;;;;5075214;28;20376;-53
2021/03/27 06:33:00;;;;;;;0.93;0.70;;;8.40;91.20;;;;;;5093453;28;20024;-58
2021/03/27 06:35:45;;;;;;;6.38;1.40;;;8.70;90.50;;;;;;5111673;28;20023;-55
2021/03/27 06:38:40;;;;;;;2.58;0.93;;;9.00;90.20;;;;;;5092664;28;20487;-54
2021/03/27 06:41:41;;;;;;;0.90;0.90;;;9.00;88.80;;;;;;5094877;28;20036;-54
2021/03/27 06:44:34;;;;;;;3.25;1.00;;;9.10;88.50;;;;;;5042158;28;20067;-52
2021/03/27 06:47:14;;;;;;;1.63;1.00;;;9.50;87.20;;;;;;5092508;28;20032;-55
2021/03/27 06:49:47;;;;;;;6.43;1.50;;;10.00;85.40;;;;;;5098071;28;20019;-58
2021/03/27 06:52:31;;;;;;;3.00;0.80;;;10.40;82.90;;;;;;5092588;28;20048;-57
2021/03/27 06:55:18;;;;;;;8.07;1.23;;;10.60;80.60;;;;;;5074011;28;20374;-56
2021/03/27 06:58:14;;;;;;;3.30;0.90;;;10.90;80.20;;;;;;5093315;28;20085;-56
2021/03/27 07:00:45;;;;;;;4.03;1.20;;;11.10;78.30;;;;;;5092382;28;20489;-54
2021/03/27 07:03:46;;;;;;;2.40;0.98;;;11.50;76.20;;;;;;5094613;28;20038;-55
2021/03/27 07:06:49;;;;;;;3.67;1.30;;;11.90;75.10;;;;;;5112526;28;20443;-56
2021/03/27 07:09:52;;;;;;;0.95;0.82;;;11.80;74.60;;;;;;5099513;28;20038;-52
2021/03/27 07:12:29;;;;;;;2.38;1.40;;;11.10;74.00;;;;;;5075149;28;20028;-52
2021/03/27 07:15:34;;;;;;;2.25;1.42;;;10.70;75.80;;;;;;5108505;28;20388;-55
2021/03/27 07:18:22;;;;;;;5.43;1.25;;;10.30;77.00;;;;;;5085120;28;20038;-52
2021/03/27 07:21:06;;;;;;;5.95;1.55;;;9.90;76.50;;;;;;5112011;28;20032;-54
2021/03/27 07:23:56;;;;;;;2.47;1.38;;;9.90;76.90;;;;;;5111135;28;20020;-55
2021/03/27 07:26:40;;;;;;;2.88;1.42;;;10.40;75.90;;;;;;5112219;28;20446;-56
2021/03/27 07:29:31;;;;;;;7.82;1.85;;;11.20;72.70;;;;;;5109779;28;20163;-52
2021/03/27 07:32:14;;;;;;;2.25;1.33;;;11.60;72.10;;;;;;5091538;28;20024;-55
2021/03/27 07:34:55;;;;;;;3.63;1.88;;;12.00;70.60;;;;;;5073539;28;20035;-56
2021/03/27 07:37:39;;;;;;;7.45;1.58;;;12.40;68.80;;;;;;5092525;28;20146;-58
2021/03/27 07:40:05;;;;;;;3.88;1.40;;;12.40;68.30;;;;;;5091474;28;20473;-57
2021/03/27 07:42:39;;;;;;;3.83;1.30;;;11.90;68.10;;;;;;5093833;28;20031;-55
2021/03/27 07:45:36;;;;;;;6.03;1.48;;;11.40;69.60;;;;;;5103146;28;20028;-53
2021/03/27 07:48:19;;;;;;;7.82;1.90;;;10.60;72.70;;;;;;5094948;28;20438;-58
2021/03/27 07:50:57;;;;;;;4.82;1.90;;;10.00;74.10;;;;;;5098337;28;20020;-56
2021/03/27 07:53:56;;;;;;;5.47;2.17;;;9.60;75.10;;;;;;5091847;28;20385;-53
2021/03/27 07:56:45;;;;;;;4.32;1.65;;;9.40;76.90;;;;;;5111348;28;20016;-56
2021/03/27 07:59:38;;;;;;;7.75;1.85;;;9.30;77.50;;;;;;5092232;28;20024;-57
2021/03/27 08:02:23;;;;;;;4.13;1.65;;;9.30;77.00;;;;;;5093207;28;20108;-53
2021/03/27 08:04:59;;;;;;;5.37;1.30;;;9.20;76.90;;;;;;5109507;28;20106;-57
2021/03/27 08:07:56;;;;;;;2.88;1.25;;;9.20;77.10;;;;;;5108710;28;20028;-56
2021/03/27 08:10:33;;;;;;;;;;;9.20;77.80;;;;;;5072918;28;20020;-56
2021/03/27 08:13:19;;;;;;;5.95;1.65;;;9.20;78.80;;;;;;5091363;28;19933;-58
2021/03/27 08:16:19;;;;;;;6.05;1.77;;;9.20;80.10;;;;;;5097711;28;20031;-52
2021/03/27 08:19:16;;;;;;;5.60;1.88;;;9.20;80.70;;;;;;5104062;28;20024;-51
2021/03/27 08:22:18;;;;;;;7.53;1.48;;;9.40;77.70;;;;;;5096700;28;20024;-51
2021/03/27 08:24:55;;;;;;;4.93;1.45;;;9.30;77.00;;;;;;5090473;28;20024;-48
2021/03/27 08:27:51;;;;;;;8.40;1.85;;;9.20;78.30;;;;;;5090834;28;20176;-51
2021/03/27 08:30:38;;;;;;;7.85;1.50;;;9.10;79.20;;;;;;5072821;28;20402;-54
2021/03/27 08:33:34;;;;;;;5.47;1.60;;;9.00;79.40;;;;;;5091031;28;20534;-52
2021/03/27 08:36:11;;;;;;;7.07;1.65;;;9.00;79.70;;;;;;5091238;28;20068;-49
2021/03/27 08:39:14;;;;;;;11.90;1.65;;;9.00;80.00;;;;;;5091149;28;20062;-51
2021/03/27 08:41:52;;;;;;;9.88;1.40;;;9.10;80.80;;;;;;5091337;28;20024;-53
2021/03/27 08:44:41;;;;;;;6.05;1.80;;;9.30;79.40;;;;;;5075394;28;20028;-51
2021/03/27 08:47:31;;;;;;;13.65;1.60;;;9.40;79.10;;;;;;5091775;28;20032;-53
2021/03/27 08:50:15;;;;;;;12.60;1.90;;;9.50;78.40;;;;;;5102946;28;20037;-54
2021/03/27 08:53:03;;;;;;;2.22;1.75;;;9.60;78.60;;;;;;5112054;28;20448;-49
2021/03/27 08:55:49;;;;;;;5.85;1.75;;;10.30;77.00;;;;;;5092420;28;20456;-54
2021/03/27 08:58:53;;;;;;;5.53;3.10;;;11.00;74.60;;;;;;5105516;28;20031;-56
2021/03/27 09:02:00;;;;;;;11.30;2.95;;;11.80;71.50;;;;;;5090061;28;20025;-54
2021/03/27 09:04:45;;;;;;;7.28;1.95;;;12.50;69.60;;;;;;5074726;28;20406;-49
2021/03/27 09:07:28;;;;;;;5.28;2.25;;;13.10;67.80;;;;;;5089624;28;20466;-48
2021/03/27 09:10:32;;;;;;;10.68;2.00;;;13.90;65.70;;;;;;5099494;28;20026;-47
2021/03/27 09:13:37;;;;;;;7.30;1.80;;;14.40;63.50;;;;;;5109315;28;20018;-48
2021/03/27 09:16:21;;;;;;;9.95;1.92;;;13.60;63.70;;;;;;5078186;28;20395;-56
2021/03/27 09:19:10;;;;;;;4.80;1.55;;;13.70;63.50;;;;;;5100762;28;20039;-48
2021/03/27 09:21:35;;;;;;;4.80;1.60;;;13.20;64.00;;;;;;5089191;28;20021;-46
2021/03/27 09:24:34;;;;;;;8.07;3.00;;;12.40;66.80;;;;;;5100120;28;20035;-47
2021/03/27 09:27:37;;;;;;;5.68;2.42;;;12.20;67.20;;;;;;5112708;28;20066;-47
2021/03/27 09:30:24;;;;;;;9.48;2.28;;;12.50;67.70;;;;;;5094713;28;20039;-46
2021/03/27 09:32:55;;;;;;;6.75;1.80;;;12.80;66.40;;;;;;5092434;28;20031;-44
2021/03/27 09:35:30;;;;;;;3.75;1.75;;;13.00;65.70;;;;;;5094004;28;20028;-44
2021/03/27 09:38:22;;;;;;;5.57;1.80;;;12.50;66.30;;;;;;5098604;28;20061;-56
2021/03/27 09:41:10;;;;;;;8.55;2.30;;;12.00;67.80;;;;;;5105046;28;20020;-52
2021/03/27 09:43:43;;;;;;;11.07;2.67;;;11.90;68.10;;;;;;5100535;28;20035;-57
2021/03/27 09:46:27;;;;;;;6.13;1.65;;;11.80;67.90;;;;;;5095275;28;20389;-51
2021/03/27 09:49:11;;;;;;;8.73;2.03;;;11.90;69.10;;;;;;5093493;28;20020;-52
2021/03/27 09:52:10;;;;;;;9.40;2.10;;;12.40;68.80;;;;;;5094754;28;20396;-49
2021/03/27 09:54:49;;;;;;;3.67;1.50;;;12.00;68.60;;;;;;5074838;28;20128;-48
2021/03/27 09:57:26;;;;;;;3.83;1.73;;;11.30;70.30;;;;;;5102350;28;20123;-49
2021/03/27 10:00:08;;;;;;;5.10;3.00;;;10.90;71.40;;;;;;5114036;28;20027;-47
2021/03/27 10:02:39;;;;;;;3.97;1.90;;;10.60;71.90;;;;;;5098860;28;20101;-47
2021/03/27 10:05:31;;;;;;;14.57;3.28;;;10.40;72.90;;;;;;5093800;28;20038;-49
2021/03/27 10:08:15;;;;;;;4.10;1.77;;;10.60;73.80;;;;;;5075775;28;20489;-54
2021/03/27 10:10:57;;;;;;;4.32;1.83;;;10.70;73.40;;;;;;5092914;28;20028;-47
2021/03/27 10:13:38;;;;;;;4.57;1.73;;;10.80;74.20;;;;;;5094283;28;20024;-50
2021/03/27 10:16:08;;;;;;;6.95;1.60;;;11.50;72.90;;;;;;5095002;28;20543;-49
2021/03/27 10:19:00;;;;;;;2.30;1.15;;;11.70;73.20;;;;;;5113045;28;20346;-46
2021/03/27 10:21:50;;;;;;;3.83;1.70;;;11.40;74.00;;;;;;5112989;28;20035;-50
2021/03/27 10:24:21;;;;;;;3.60;1.40;;;10.60;77.90;;;;;;5113089;28;20023;-46
2021/03/27 10:27:13;;;;;;;5.60;2.33;;;10.20;80.40;;;;;;5112922;28;20081;-47
2021/03/27 10:30:02;;;;;;;5.20;1.92;;;9.80;83.80;;;;;;5111025;28;20108;-51
2021/03/27 10:32:31;;;;;;;3.97;1.73;;;9.50;86.80;;;;;;5093151;28;20026;-47
2021/03/27 10:35:24;;;;;;;2.35;1.67;;;9.30;88.50;;;;;;5112411;28;20106;-44
2021/03/27 10:38:09;;;;;;;6.53;1.30;;;9.30;88.50;;;;;;5112225;28;20034;-44
2021/03/27 10:40:55;;;;;;;3.38;1.30;;;9.20;85.30;;;;;;5112764;28;20043;-45
2021/03/27 10:43:29;;;;;;;2.25;1.25;;;9.40;85.80;;;;;;5112347;28;20026;-46
2021/03/27 10:46:29;;;;;;;3.45;1.05;;;9.70;84.90;;;;;;5112617;28;20487;-51
2021/03/27 10:49:09;;;;;;;1.25;0.68;;;10.10;82.80;;;;;;5112354;28;20023;-48
2021/03/27 10:51:56;;;;;;;2.47;0.80;;;10.40;82.80;;;;;;5112599;28;20107;-45
2021/03/27 10:54:42;;;;;;;4.07;1.60;;;10.60;82.10;;;;;;5105533;28;20103;-48
2021/03/27 10:58:05;;;;;;;3.25;1.50;;;10.50;82.20;;;;;;5091946;28;20028;-47
2021/03/27 11:00:49;;;;;;;5.32;1.48;;;10.40;83.30;;;;;;5055772;28;20067;-46
2021/03/27 11:03:51;;;;;;;5.45;1.50;;;10.40;82.10;;;;;;5093319;28;20025;-47
2021/03/27 11:06:49;;;;;;;4.07;1.35;;;10.40;79.10;;;;;;5093093;28;20028;-50
2021/03/27 11:10:04;;;;;;;3.95;1.60;;;10.40;80.80;;;;;;5073589;28;20361;-47
2021/03/27 11:13:20;;;;;;;4.53;1.38;;;10.40;79.60;;;;;;5092222;28;20073;-50
2021/03/27 11:16:32;;;;;;;5.57;1.85;;;10.40;79.50;;;;;;5092337;28;20496;-47
2021/03/27 11:19:08;;;;;;;6.95;1.60;;;10.30;78.50;;;;;;5112080;28;20506;-47
2021/03/27 11:21:36;;;;;;;;;;;10.30;78.70;;;;;;5102399;28;20431;-51
2021/03/27 11:24:36;;;;;;;5.78;1.48;;;10.40;76.20;;;;;;5091333;28;20373;-49
2021/03/27 11:27:10;;;;;;;5.65;1.75;;;10.40;74.50;;;;;;5092640;28;20028;-47
2021/03/27 11:29:36;;;;;;;6.57;1.50;;;10.50;72.90;;;;;;5091546;28;20415;-50
2021/03/27 11:32:07;;;;;;;5.10;1.30;;;10.50;73.60;;;;;;5085457;28;20115;-50
2021/03/27 11:34:47;;;;;;;4.68;1.52;;;10.50;74.30;;;;;;5109744;28;20099;-46
2021/03/27 11:37:28;;;;;;;6.85;2.08;;;10.50;75.20;;;;;;5111832;28;20015;-48
2021/03/27 11:40:13;;;;;;;9.52;1.45;;;10.50;77.40;;;;;;5101586;28;20032;-45
2021/03/27 11:43:10;;;;;;;6.25;1.33;;;10.40;80.40;;;;;;5090985;28;20060;-46
2021/03/27 11:45:39;;;;;;;5.80;1.35;;;10.20;82.70;;;;;;5096123;28;20031;-46
2021/03/27 11:48:19;;;;;;;6.35;1.50;;;9.90;84.40;;;;;;5103557;28;20031;-49
2021/03/27 11:51:06;;;;;;;8.30;2.50;;;9.90;84.50;;;;;;5110406;28;20016;-46
2021/03/27 11:53:45;;;;;;;7.20;1.88;;;9.70;84.90;;;;;;5090735;28;20123;-45
2021/03/27 11:56:42;;;;;;;5.30;1.85;;;9.80;86.00;;;;;;5091147;28;20096;-45
2021/03/27 11:59:42;;;;;;;6.85;1.55;;;9.80;86.60;;;;;;5091317;28;20362;-47
2021/03/27 12:02:45;;;;;;;5.80;1.40;;;9.90;87.40;;;;;;5091187;28;20032;-48
2021/03/27 12:05:44;;;;;;;6.22;1.70;;;10.00;86.40;;;;;;5091296;28;20020;-48
2021/03/27 12:08:20;;;;;;;3.78;1.48;;;10.10;85.10;;;;;;5091070;28;20020;-51
2021/03/27 12:11:04;;;;;;;;;;;10.00;83.90;;;;;;5092570;28;20517;-48
2021/03/27 12:14:15;;;;;;;2.65;1.60;;;9.70;85.30;;;;;;5095395;28;19931;-49
2021/03/27 12:17:05;;;;;;;3.60;1.60;;;9.70;87.50;;;;;;5028359;28;20503;-47
2021/03/27 12:19:37;;;;;;;4.60;1.35;;;9.70;85.50;;;;;;5090625;28;20056;-45
2021/03/27 12:22:18;;;;;;;7.32;1.85;;;9.80;86.20;;;;;;5105908;28;20062;-45
2021/03/27 12:24:47;;;;;;;5.97;2.13;;;10.10;86.70;;;;;;5110682;28;20028;-46
2021/03/27 12:27:38;;;;;;;8.48;1.92;;;10.30;85.90;;;;;;5090725;28;20118;-47
2021/03/27 12:30:21;;;;;;;5.38;1.77;;;10.50;82.90;;;;;;5091267;28;20028;-45
2021/03/27 12:33:05;;;;;;;5.03;1.25;;;10.70;82.10;;;;;;5092540;28;20019;-44
2021/03/27 12:35:35;;;;;;;4.28;1.63;;;10.80;75.80;;;;;;5097957;28;20026;-43
2021/03/27 12:38:06;;;;;;;7.95;1.15;;;10.80;74.20;;;;;;5090701;28;20043;-46
2021/03/27 12:40:56;;;;;;;8.77;1.60;;;10.80;73.60;;;;;;5092081;28;20107;-48
2021/03/27 12:43:25;;;;;;;7.00;1.20;;;10.90;73.10;;;;;;5090877;28;20516;-45
2021/03/27 12:46:20;;;;;;;4.38;1.52;;;10.80;73.40;;;;;;5105371;28;20035;-46
2021/03/27 12:49:03;;;;;;;8.48;1.70;;;10.70;73.30;;;;;;5090475;28;20088;-44
2021/03/27 12:52:01;;;;;;;5.78;1.35;;;10.80;71.10;;;;;;5091393;28;20489;-48
2021/03/27 12:54:36;;;;;;;5.47;1.45;;;10.70;71.90;;;;;;5091712;28;20048;-46
2021/03/27 12:57:26;;;;;;;6.55;1.65;;;10.70;70.30;;;;;;5110832;28;20111;-47
2021/03/27 13:00:35;;;;;;;5.10;1.70;;;10.90;70.40;;;;;;5110515;28;20496;-45
2021/03/27 13:03:45;;;;;;;1.80;1.15;;;10.90;69.90;;;;;;5014657;28;20030;-44
2021/03/27 13:06:13;;;;;;;7.43;1.50;;;10.90;70.30;;;;;;5031451;28;20060;-50
2021/03/27 13:08:42;;;;;;;3.50;1.50;;;11.10;72.20;;;;;;5082726;28;20044;-46
2021/03/27 13:11:18;;;;;;;5.10;1.98;;;11.40;72.90;;;;;;5095500;28;20032;-48
2021/03/27 13:13:52;;;;;;;;;;;11.40;71.50;;;;;;5094273;28;20020;-46
2021/03/27 13:16:26;;;;;;;4.68;1.30;;;11.30;71.20;;;;;;5095084;28;20281;-47
2021/03/27 13:19:04;;;;;;;6.05;1.38;;;11.30;71.10;;;;;;5093947;28;20024;-45
2021/03/27 13:21:39;;;;;;;5.38;1.65;;;11.20;69.10;;;;;;5110699;28;20031;-44
2021/03/27 13:24:24;;;;;;;3.67;1.90;;;11.10;70.20;;;;;;5114081;28;20453;-45
2021/03/27 13:27:03;;;;;;;5.47;1.85;;;11.20;69.90;;;;;;5076087;28;20097;-46
2021/03/27 13:29:37;;;;;;;4.55;1.70;;;11.20;68.00;;;;;;5092641;28;20020;-49
2021/03/27 13:32:17;;;;;;;3.95;1.73;;;11.20;68.40;;;;;;5111186;28;20020;-42
2021/03/27 13:35:02;;;;;;;5.15;1.80;;;11.00;69.30;;;;;;5112045;28;20562;-44
2021/03/27 13:37:35;;;;;;;9.52;1.88;;;11.10;69.90;;;;;;5097971;28;20544;-47
2021/03/27 13:40:06;;;;;;;3.97;1.23;;;11.30;68.70;;;;;;5097460;28;20753;-45
2021/03/27 13:42:49;;;;;;;6.38;2.08;;;11.50;69.30;;;;;;5077856;28;20078;-48
2021/03/27 13:45:25;;;;;;;5.20;2.33;;;11.40;68.70;;;;;;5104940;28;20084;-45
2021/03/27 13:48:10;;;;;;;4.15;1.38;;;11.40;70.10;;;;;;5099364;28;20085;-45
2021/03/27 13:51:12;;;;;;;4.45;1.38;;;11.30;70.50;;;;;;5081172;28;20063;-44
2021/03/27 13:53:46;;;;;;;5.60;1.40;;;11.30;70.90;;;;;;5095447;28;20023;-46
2021/03/27 13:56:33;;;;;;;4.93;1.45;;;11.20;69.70;;;;;;5112039;28;20028;-48
2021/03/27 13:59:37;;;;;;;5.68;2.00;;;11.20;70.20;;;;;;5090262;28;20038;-49
2021/03/27 14:02:39;;;;;;;6.47;2.20;;;11.10;70.50;;;;;;5098964;28;20020;-48
2021/03/27 14:05:26;;;;;;;8.73;2.00;;;11.00;73.80;;;;;;5103755;28;20024;-45
2021/03/27 14:08:21;;;;;;;3.80;1.85;;;11.00;73.70;;;;;;5093165;28;20132;-47
2021/03/27 14:10:58;;;;;;;5.40;1.80;;;10.80;74.70;;;;;;5091967;28;20024;-48
2021/03/27 14:13:42;;;;;;;4.13;1.25;;;10.60;75.80;;;;;;5092737;28;20474;-49
2021/03/27 14:16:12;;;;;;;4.20;1.17;;;10.50;78.80;;;;;;5092707;28;20024;-51